Time;durP1;ratioP1;P1;durP2;ratioP2;P2;SDS_P1;SDS_P2;PMS_P1;PMS_P2;Temp;Humidity;BMP_temperature;BMP_pressure;BME280_temperature;BME280_humidity;BME280_pressure;Samples;Min_cycle;Max_cycle;Signal;HPM_P1;HPM_P2
2023/12/08 00:00:26;;;;;;;;;;;3.20;99.90;;;;;;8426071;28;19924;-72
2023/12/08 00:04:28;;;;;;;;;;;3.20;99.90;;;;;;8426999;28;19924;-72
2023/12/08 00:08:30;;;;;;;;;;;3.30;99.90;;;;;;8418942;28;19928;-72
2023/12/08 00:12:31;;;;;;;;;;;3.30;99.90;;;;;;8417071;28;19924;-72
2023/12/08 00:16:33;;;;;;;;;;;3.30;99.90;;;;;;8415662;28;19946;-72
2023/12/08 00:20:35;;;;;;;;;;;3.30;99.90;;;;;;8420279;28;19931;-72
2023/12/08 00:24:36;;;;;;;;;;;3.30;99.90;;;;;;8421254;28;19994;-72
2023/12/08 00:28:38;;;;;;;;;;;3.30;99.90;;;;;;8425582;28;19963;-72
2023/12/08 00:37:42;;;;;;;;;;;3.20;99.90;;;;;;8422837;28;20438;-72
2023/12/08 00:41:44;;;;;;;;;;;3.30;99.90;;;;;;8420787;28;20343;-73
2023/12/08 00:45:46;;;;;;;;;;;3.30;99.90;;;;;;8413880;28;19982;-72
2023/12/08 00:49:48;;;;;;;;;;;3.20;99.90;;;;;;8416302;28;19932;-72
2023/12/08 00:53:49;;;;;;;;;;;3.20;99.90;;;;;;8425592;28;19932;-72
2023/12/08 00:57:51;;;;;;;;;;;3.20;99.90;;;;;;8418703;28;22197;-73
2023/12/08 01:01:53;;;;;;;;;;;3.20;99.90;;;;;;8421731;28;19982;-72
2023/12/08 01:05:55;;;;;;;;;;;3.20;99.90;;;;;;8424913;28;19923;-72
2023/12/08 01:09:56;;;;;;;;;;;3.20;99.90;;;;;;8424534;28;19939;-73
2023/12/08 01:13:58;;;;;;;;;;;3.20;99.90;;;;;;8420026;28;19931;-72
2023/12/08 01:18:00;;;;;;;;;;;3.30;99.90;;;;;;8415211;28;20001;-72
2023/12/08 01:22:01;;;;;;;;;;;3.30;99.90;;;;;;8420778;28;20034;-72
2023/12/08 01:26:05;;;;;;;;;;;3.30;99.90;;;;;;8423452;28;19939;-73
2023/12/08 01:30:07;;;;;;;;;;;3.30;99.90;;;;;;8421188;28;19928;-73
2023/12/08 01:34:09;;;;;;;;;;;3.30;99.90;;;;;;8426184;28;19982;-72
2023/12/08 01:38:11;;;;;;;;;;;3.30;99.90;;;;;;8426448;28;19965;-72
2023/12/08 01:42:12;;;;;;;;;;;3.30;99.90;;;;;;8425220;28;19935;-72
2023/12/08 01:46:15;;;;;;;;;;;3.30;99.90;;;;;;8421280;28;19932;-72
2023/12/08 01:50:17;;;;;;;;;;;3.40;99.90;;;;;;8426857;28;19932;-73
2023/12/08 01:54:19;;;;;;;;;;;3.40;99.90;;;;;;8421742;28;19993;-72
2023/12/08 01:58:21;;;;;;;;;;;3.40;99.90;;;;;;8423855;28;19967;-73
2023/12/08 02:02:23;;;;;;;;;;;3.40;99.90;;;;;;8426413;28;19938;-72
2023/12/08 02:06:24;;;;;;;;;;;3.40;99.90;;;;;;8427076;28;19928;-72
2023/12/08 02:10:26;;;;;;;;;;;3.40;99.90;;;;;;8427349;28;19924;-73
2023/12/08 02:14:28;;;;;;;;;;;3.50;99.90;;;;;;8426730;28;19932;-73
2023/12/08 02:18:31;;;;;;;;;;;3.50;99.90;;;;;;8421933;28;19932;-72
2023/12/08 02:22:33;;;;;;;;;;;3.40;99.90;;;;;;8421471;28;19933;-72
2023/12/08 02:26:35;;;;;;;;;;;3.50;99.90;;;;;;8422974;28;19977;-72
2023/12/08 02:30:36;;;;;;;;;;;3.50;99.90;;;;;;8429681;28;19935;-72
2023/12/08 02:34:40;;;;;;;;;;;3.50;99.90;;;;;;8415171;28;19931;-72
2023/12/08 02:38:42;;;;;;;;;;;3.50;99.90;;;;;;8422433;28;19931;-73
2023/12/08 02:42:43;;;;;;;;;;;3.50;99.90;;;;;;8410544;28;19945;-73
2023/12/08 02:46:45;;;;;;;;;;;3.40;99.90;;;;;;8417097;28;19924;-73
2023/12/08 02:55:50;;;;;;;;;;;3.40;99.90;;;;;;8412590;28;19923;-72
2023/12/08 02:59:52;;;;;;;;;;;3.40;99.90;;;;;;8420876;28;19931;-73
2023/12/08 03:03:54;;;;;;;;;;;3.30;99.90;;;;;;8426226;28;19930;-73
2023/12/08 03:07:56;;;;;;;;;;;3.30;99.90;;;;;;8430525;28;20334;-72
2023/12/08 03:11:57;;;;;;;;;;;3.30;99.90;;;;;;8426177;28;19924;-72
2023/12/08 03:15:59;;;;;;;;;;;3.20;99.90;;;;;;8416571;28;19932;-73
2023/12/08 03:20:01;;;;;;;;;;;3.30;99.90;;;;;;8423438;28;20245;-73
2023/12/08 03:24:03;;;;;;;;;;;3.30;99.90;;;;;;8447079;27;19949;-72
2023/12/08 03:28:04;;;;;;;;;;;3.30;99.90;;;;;;8423291;28;20592;-73
2023/12/08 03:32:06;;;;;;;;;;;3.20;99.90;;;;;;8426469;28;20287;-73
2023/12/08 03:36:08;;;;;;;;;;;3.20;99.90;;;;;;8420013;28;19924;-72
2023/12/08 03:40:10;;;;;;;;;;;3.20;99.90;;;;;;8415832;28;19947;-72
2023/12/08 03:44:12;;;;;;;;;;;3.20;99.90;;;;;;8420708;28;19933;-72
2023/12/08 03:48:14;;;;;;;;;;;3.20;99.90;;;;;;8405245;28;19951;-72
2023/12/08 03:52:15;;;;;;;;;;;3.20;99.90;;;;;;8424570;28;19924;-72
2023/12/08 03:56:17;;;;;;;;;;;3.20;99.90;;;;;;8420436;28;19930;-72
2023/12/08 04:00:19;;;;;;;;;;;3.20;99.90;;;;;;8422909;28;19924;-73
2023/12/08 04:04:21;;;;;;;;;;;3.20;99.90;;;;;;8420205;28;19940;-72
2023/12/08 04:08:26;;;;;;;;;;;3.20;99.90;;;;;;8425486;28;19981;-73
2023/12/08 04:12:28;;;;;;;;;;;3.20;99.90;;;;;;8411180;28;19924;-73
2023/12/08 04:16:30;;;;;;;;;;;3.20;99.90;;;;;;8416633;28;19955;-72
2023/12/08 04:20:32;;;;;;;;;;;3.20;99.90;;;;;;8421589;28;20010;-73
2023/12/08 04:24:34;;;;;;;;;;;3.30;99.90;;;;;;8421340;28;20504;-72
2023/12/08 04:28:36;;;;;;;;;;;3.30;99.90;;;;;;8420156;28;20274;-73
2023/12/08 04:32:38;;;;;;;;;;;3.30;99.90;;;;;;8413816;28;19932;-72
2023/12/08 04:36:39;;;;;;;;;;;3.30;99.90;;;;;;8406940;28;19931;-73
2023/12/08 04:40:41;;;;;;;;;;;3.30;99.90;;;;;;8432503;28;19935;-72
2023/12/08 04:44:44;;;;;;;;;;;3.30;99.90;;;;;;8436419;28;20360;-72
2023/12/08 04:48:45;;;;;;;;;;;3.30;99.90;;;;;;8427882;28;19924;-72
2023/12/08 04:52:47;;;;;;;;;;;3.30;99.90;;;;;;8427478;28;19963;-72
2023/12/08 04:56:49;;;;;;;;;;;3.30;99.90;;;;;;8441700;28;19981;-72
2023/12/08 05:00:51;;;;;;;;;;;3.30;99.90;;;;;;8440002;28;19924;-72
2023/12/08 05:04:52;;;;;;;;;;;3.30;99.90;;;;;;8456645;27;19924;-72
2023/12/08 05:08:54;;;;;;;;;;;3.30;99.90;;;;;;8441488;28;19927;-73
2023/12/08 05:12:56;;;;;;;;;;;3.30;99.90;;;;;;8421667;28;19924;-72
2023/12/08 05:16:57;;;;;;;;;;;3.30;99.90;;;;;;8424675;28;19923;-72
2023/12/08 05:20:59;;;;;;;;;;;3.30;99.90;;;;;;8430191;28;19925;-72
2023/12/08 05:25:01;;;;;;;;;;;3.30;99.90;;;;;;8417180;28;19928;-72
2023/12/08 05:29:02;;;;;;;;;;;3.30;99.90;;;;;;8442013;28;19947;-72
2023/12/08 05:33:04;;;;;;;;;;;3.40;99.90;;;;;;8440214;28;19934;-73
2023/12/08 05:37:06;;;;;;;;;;;3.40;99.90;;;;;;8435157;28;19924;-72
2023/12/08 05:41:08;;;;;;;;;;;3.40;99.90;;;;;;8424474;28;19928;-73
2023/12/08 05:45:09;;;;;;;;;;;3.40;99.90;;;;;;8434203;28;19986;-72
2023/12/08 05:49:11;;;;;;;;;;;3.40;99.90;;;;;;8434790;28;19928;-73
2023/12/08 05:53:13;;;;;;;;;;;3.40;99.90;;;;;;8442165;28;20293;-73
2023/12/08 05:57:15;;;;;;;;;;;3.40;99.90;;;;;;8453710;28;19924;-72
2023/12/08 06:01:18;;;;;;;;;;;3.40;99.90;;;;;;8414830;28;19949;-73
2023/12/08 06:05:21;;;;;;;;;;;3.40;99.90;;;;;;8427555;28;19924;-72
2023/12/08 06:09:23;;;;;;;;;;;3.50;99.90;;;;;;8430857;28;19927;-72
2023/12/08 06:13:25;;;;;;;;;;;3.40;99.90;;;;;;8427261;28;19931;-73
2023/12/08 06:17:27;;;;;;;;;;;3.40;99.90;;;;;;8435388;28;19923;-73
2023/12/08 06:21:29;;;;;;;;;;;3.40;99.90;;;;;;8424692;28;19928;-73
2023/12/08 06:25:30;;;;;;;;;;;3.50;99.90;;;;;;8435543;28;19931;-73
2023/12/08 06:29:32;;;;;;;;;;;3.50;99.90;;;;;;8425508;28;19928;-73
2023/12/08 06:33:34;;;;;;;;;;;3.50;99.90;;;;;;8419661;28;19927;-72
2023/12/08 06:37:36;;;;;;;;;;;3.50;99.90;;;;;;8421050;28;19927;-73
2023/12/08 06:41:38;;;;;;;;;;;3.50;99.90;;;;;;8432232;28;19969;-72
2023/12/08 06:45:40;;;;;;;;;;;3.50;99.90;;;;;;8432875;28;19924;-72
2023/12/08 06:49:42;;;;;;;;;;;3.50;99.90;;;;;;8443719;28;19931;-73
2023/12/08 06:53:43;;;;;;;;;;;3.60;99.90;;;;;;8423951;28;19924;-72
2023/12/08 06:57:45;;;;;;;;;;;3.60;99.90;;;;;;8430061;28;19924;-72
2023/12/08 07:01:47;;;;;;;;;;;3.60;99.90;;;;;;8424888;28;19924;-72
2023/12/08 07:05:48;;;;;;;;;;;3.60;99.90;;;;;;8432035;28;19959;-72
2023/12/08 07:09:50;;;;;;;;;;;3.60;99.90;;;;;;8427179;28;19931;-72
2023/12/08 07:13:52;;;;;;;;;;;3.60;99.90;;;;;;8424901;28;19932;-72
2023/12/08 07:17:54;;;;;;;;;;;3.60;99.90;;;;;;8422135;28;19932;-72
2023/12/08 07:21:55;;;;;;;;;;;3.60;99.90;;;;;;8482829;27;19924;-72
2023/12/08 07:25:57;;;;;;;;;;;3.60;99.90;;;;;;8424790;28;20265;-73
2023/12/08 07:29:59;;;;;;;;;;;3.60;99.90;;;;;;8422867;28;19924;-72
2023/12/08 07:34:01;;;;;;;;;;;3.60;99.90;;;;;;8471691;27;20648;-72
2023/12/08 07:38:04;;;;;;;;;;;3.60;99.90;;;;;;8425765;28;20363;-72
2023/12/08 07:42:05;;;;;;;;;;;3.60;99.90;;;;;;8426573;28;20391;-73
2023/12/08 07:46:07;;;;;;;;;;;3.70;99.90;;;;;;8426728;28;20376;-72
2023/12/08 07:50:09;;;;;;;;;;;3.60;99.90;;;;;;8420799;28;19923;-73
2023/12/08 07:54:10;;;;;;;;;;;3.70;99.90;;;;;;8441206;28;19928;-72
2023/12/08 07:58:12;;;;;;;;;;;3.70;99.90;;;;;;8430668;28;19924;-73
2023/12/08 08:02:14;;;;;;;;;;;3.70;99.90;;;;;;8413983;28;19982;-73
2023/12/08 08:06:16;;;;;;;;;;;3.70;99.90;;;;;;8430560;28;19924;-72
2023/12/08 08:10:17;;;;;;;;;;;3.80;99.90;;;;;;8442395;28;19924;-72
2023/12/08 08:14:20;;;;;;;;;;;3.80;99.90;;;;;;8439435;28;19939;-72
2023/12/08 08:18:22;;;;;;;;;;;3.80;99.90;;;;;;8422219;28;19924;-73
2023/12/08 08:22:24;;;;;;;;;;;3.80;99.90;;;;;;8418487;28;19928;-73
2023/12/08 08:26:31;;;;;;;;;;;3.90;99.90;;;;;;8415879;28;19979;-72
2023/12/08 08:30:33;;;;;;;;;;;3.90;99.90;;;;;;8437421;28;19931;-72
2023/12/08 08:34:35;;;;;;;;;;;3.90;99.90;;;;;;8446113;28;19928;-73
2023/12/08 08:38:37;;;;;;;;;;;3.90;99.90;;;;;;8435220;28;19976;-73
2023/12/08 08:42:39;;;;;;;;;;;3.90;99.90;;;;;;8441861;28;19932;-73
2023/12/08 08:46:41;;;;;;;;;;;3.90;99.90;;;;;;8441635;28;19975;-73
2023/12/08 08:50:42;;;;;;;;;;;4.00;99.90;;;;;;8437167;28;19974;-72
2023/12/08 08:54:50;;;;;;;;;;;4.00;99.90;;;;;;8433733;28;20014;-73
2023/12/08 08:58:53;;;;;;;;;;;4.00;99.90;;;;;;8439762;28;19935;-73
2023/12/08 09:02:56;;;;;;;;;;;4.00;99.90;;;;;;8445012;28;20299;-73
2023/12/08 09:06:58;;;;;;;;;;;4.10;99.90;;;;;;8450205;28;19924;-73
2023/12/08 09:11:00;;;;;;;;;;;4.10;99.90;;;;;;8440785;28;19924;-73
2023/12/08 09:15:03;;;;;;;;;;;4.20;99.90;;;;;;8423734;28;20338;-73
2023/12/08 09:19:05;;;;;;;;;;;4.20;99.90;;;;;;8415098;28;19935;-73
2023/12/08 09:23:07;;;;;;;;;;;4.20;99.90;;;;;;8440511;28;19928;-73
2023/12/08 09:27:10;;;;;;;;;;;4.30;99.90;;;;;;8430470;28;19981;-73
2023/12/08 09:31:12;;;;;;;;;;;4.30;99.90;;;;;;8431070;28;19957;-73
2023/12/08 09:35:13;;;;;;;;;;;4.40;99.90;;;;;;8432472;28;19928;-73
2023/12/08 09:39:15;;;;;;;;;;;4.40;99.90;;;;;;8423483;28;20011;-72
2023/12/08 09:43:31;;;;;;;;;;;4.40;99.90;;;;;;8428237;28;19933;-73
2023/12/08 09:47:33;;;;;;;;;;;4.50;99.90;;;;;;8436668;28;19974;-73
2023/12/08 09:51:35;;;;;;;;;;;4.50;99.90;;;;;;8445732;28;20380;-73
2023/12/08 09:55:40;;;;;;;;;;;4.60;99.90;;;;;;8453351;28;19973;-73
2023/12/08 09:59:42;;;;;;;;;;;4.60;99.90;;;;;;8430875;28;20257;-73
2023/12/08 10:03:44;;;;;;;;;;;4.70;99.90;;;;;;8442962;28;19935;-73
2023/12/08 10:07:46;;;;;;;;;;;4.70;99.90;;;;;;8437259;28;19971;-73
2023/12/08 10:11:48;;;;;;;;;;;4.80;99.90;;;;;;8433002;28;19924;-73
2023/12/08 10:15:50;;;;;;;;;;;4.80;99.90;;;;;;8434783;28;19977;-73
2023/12/08 10:20:08;;;;;;;;;;;4.80;99.90;;;;;;8434563;28;19929;-73
2023/12/08 10:24:10;;;;;;;;;;;4.90;99.90;;;;;;8433362;28;20374;-73
2023/12/08 10:28:12;;;;;;;;;;;4.90;99.90;;;;;;8435937;28;20002;-73
2023/12/08 10:32:13;;;;;;;;;;;5.00;99.90;;;;;;8431925;28;19924;-73
2023/12/08 10:36:15;;;;;;;;;;;5.10;99.90;;;;;;8430609;28;19932;-73
2023/12/08 10:40:17;;;;;;;;;;;5.10;99.90;;;;;;8434194;28;19931;-73
2023/12/08 10:44:23;;;;;;;;;;;5.10;99.90;;;;;;8426603;28;20002;-73
2023/12/08 10:48:26;;;;;;;;;;;5.20;99.90;;;;;;8438119;28;19977;-72
2023/12/08 10:52:29;;;;;;;;;;;5.20;99.90;;;;;;8432359;28;19923;-72
2023/12/08 10:56:31;;;;;;;;;;;5.20;99.90;;;;;;8439423;28;19935;-73
2023/12/08 11:00:33;;;;;;;;;;;5.30;99.90;;;;;;8432874;28;20379;-72
2023/12/08 11:04:37;;;;;;;;;;;5.30;99.90;;;;;;8429987;28;19978;-73
2023/12/08 11:08:43;;;;;;;;;;;5.40;99.90;;;;;;8427185;28;20294;-73
2023/12/08 11:12:53;;;;;;;;;;;5.40;99.90;;;;;;8434511;28;19927;-72
2023/12/08 11:16:57;;;;;;;;;;;5.50;99.90;;;;;;8417760;28;20306;-72
2023/12/08 11:20:59;;;;;;;;;;;5.50;99.90;;;;;;8434981;28;19924;-72
2023/12/08 11:25:07;;;;;;;;;;;5.60;99.90;;;;;;8439345;28;19968;-72
2023/12/08 11:29:17;;;;;;;;;;;5.70;99.90;;;;;;8449119;28;19953;-72
2023/12/08 11:33:21;;;;;;;;;;;5.80;99.90;;;;;;8429237;28;19946;-73
2023/12/08 11:37:23;;;;;;;;;;;5.80;99.90;;;;;;8439838;28;19924;-72
2023/12/08 11:41:25;;;;;;;;;;;5.90;99.90;;;;;;8399270;28;19924;-73
2023/12/08 11:45:28;;;;;;;;;;;6.00;99.90;;;;;;8434624;28;19931;-72
2023/12/08 11:49:30;;;;;;;;;;;6.00;99.90;;;;;;8424892;28;19928;-73
2023/12/08 11:53:46;;;;;;;;;;;6.10;99.90;;;;;;8409223;28;19928;-72
2023/12/08 11:57:48;;;;;;;;;;;6.20;99.90;;;;;;8414007;28;19954;-73
2023/12/08 12:01:50;;;;;;;;;;;6.20;99.90;;;;;;8419067;28;20430;-73
2023/12/08 12:05:52;;;;;;;;;;;6.30;99.90;;;;;;8451705;27;19951;-73
2023/12/08 12:09:55;;;;;;;;;;;6.40;99.90;;;;;;8422803;28;19975;-73
2023/12/08 12:13:58;;;;;;;;;;;6.50;99.90;;;;;;8426531;28;19978;-73
2023/12/08 12:18:01;;;;;;;;;;;6.50;99.90;;;;;;8417578;28;20429;-72
2023/12/08 12:22:03;;;;;;;;;;;6.60;99.90;;;;;;8429044;28;19924;-72
2023/12/08 12:26:10;;;;;;;;;;;6.70;99.90;;;;;;8434802;28;19924;-73
2023/12/08 12:30:13;;;;;;;;;;;6.80;99.90;;;;;;8434840;28;19931;-73
2023/12/08 12:34:15;;;;;;;;;;;6.90;99.90;;;;;;8437912;28;19927;-73
2023/12/08 12:38:20;;;;;;;;;;;6.90;99.90;;;;;;8443414;28;19931;-72
2023/12/08 12:42:21;;;;;;;;;;;7.00;99.90;;;;;;8439336;28;19977;-73
2023/12/08 12:46:25;;;;;;;;;;;7.10;99.90;;;;;;8435513;28;19978;-73
2023/12/08 12:50:27;;;;;;;;;;;7.20;99.90;;;;;;8433455;28;20379;-72
2023/12/08 12:54:33;;;;;;;;;;;7.20;99.90;;;;;;8428914;28;19924;-73
2023/12/08 12:58:35;;;;;;;;;;;7.30;99.90;;;;;;8437688;28;20037;-72
2023/12/08 13:02:37;;;;;;;;;;;7.30;99.90;;;;;;8431830;28;20312;-73
2023/12/08 13:06:38;;;;;;;;;;;7.40;99.90;;;;;;8459699;27;19954;-72
2023/12/08 13:10:41;;;;;;;;;;;7.50;99.90;;;;;;8432631;28;19977;-73
2023/12/08 13:14:42;;;;;;;;;;;7.50;99.90;;;;;;8421324;28;20386;-72
2023/12/08 13:18:47;;;;;;;;;;;7.60;99.90;;;;;;8430439;28;19928;-72
2023/12/08 13:22:49;;;;;;;;;;;7.60;99.90;;;;;;8442964;28;19923;-73
2023/12/08 13:26:51;;;;;;;;;;;7.60;99.90;;;;;;8438858;28;19931;-72
2023/12/08 13:30:53;;;;;;;;;;;7.70;99.90;;;;;;8437739;28;19932;-73
2023/12/08 13:34:54;;;;;;;;;;;7.70;99.90;;;;;;8434505;28;19978;-73
2023/12/08 13:38:56;;;;;;;;;;;7.80;99.90;;;;;;8430588;28;19927;-73
2023/12/08 13:42:58;;;;;;;;;;;7.80;99.90;;;;;;8448243;28;20092;-73
2023/12/08 13:47:00;;;;;;;;;;;7.80;99.90;;;;;;8437760;28;19927;-73
2023/12/08 13:51:01;;;;;;;;;;;7.90;99.90;;;;;;8448036;28;20387;-73
2023/12/08 13:55:14;;;;;;;;;;;7.90;99.90;;;;;;8438388;28;19946;-73
2023/12/08 13:59:16;;;;;;;;;;;8.00;99.90;;;;;;8438599;28;19924;-73
2023/12/08 14:03:17;;;;;;;;;;;8.00;99.90;;;;;;8429635;28;19939;-73
2023/12/08 14:07:19;;;;;;;;;;;8.00;99.90;;;;;;8438307;28;19932;-73
2023/12/08 14:11:21;;;;;;;;;;;8.00;99.90;;;;;;8444887;28;20364;-73
2023/12/08 14:15:22;;;;;;;;;;;8.10;99.90;;;;;;8422544;28;20433;-73
2023/12/08 14:19:24;;;;;;;;;;;8.10;99.90;;;;;;8440213;28;19928;-72
2023/12/08 14:23:26;;;;;;;;;;;8.10;99.90;;;;;;8442177;28;20613;-73
2023/12/08 14:27:28;;;;;;;;;;;8.20;99.90;;;;;;8429758;28;19927;-73
2023/12/08 14:31:31;;;;;;;;;;;8.20;99.90;;;;;;8436340;28;20561;-73
2023/12/08 14:35:32;;;;;;;;;;;8.20;99.90;;;;;;8429406;28;20444;-73
2023/12/08 14:39:34;;;;;;;;;;;8.20;99.90;;;;;;8448472;28;19928;-72
2023/12/08 14:43:36;;;;;;;;;;;8.20;99.90;;;;;;8437557;28;20259;-73
2023/12/08 14:47:38;;;;;;;;;;;8.30;99.90;;;;;;8424449;28;19936;-73
2023/12/08 14:51:40;;;;;;;;;;;8.30;99.90;;;;;;8441519;28;20339;-73
2023/12/08 14:55:43;;;;;;;;;;;8.30;99.90;;;;;;8446368;28;19923;-73
2023/12/08 14:59:59;;;;;;;;;;;8.30;99.90;;;;;;8453065;28;19928;-73
2023/12/08 15:04:03;;;;;;;;;;;8.30;99.90;;;;;;8451355;28;20330;-72
2023/12/08 15:08:05;;;;;;;;;;;8.30;99.90;;;;;;8427100;28;19925;-73
2023/12/08 15:12:07;;;;;;;;;;;8.30;99.90;;;;;;8426776;28;20325;-73
2023/12/08 15:16:09;;;;;;;;;;;8.30;99.90;;;;;;8424419;28;20249;-73
2023/12/08 15:20:12;;;;;;;;;;;8.30;99.90;;;;;;8437233;28;20466;-73
2023/12/08 15:24:13;;;;;;;;;;;8.30;99.90;;;;;;8438031;28;19934;-73
2023/12/08 15:28:15;;;;;;;;;;;8.30;99.90;;;;;;8430571;28;20390;-73
2023/12/08 15:32:17;;;;;;;;;;;8.30;99.90;;;;;;8437240;28;19931;-73
2023/12/08 15:36:18;;;;;;;;;;;8.30;99.90;;;;;;8443671;28;19928;-74
2023/12/08 15:40:20;;;;;;;;;;;8.30;99.90;;;;;;8437189;28;19976;-73
2023/12/08 15:44:22;;;;;;;;;;;8.30;99.90;;;;;;8438729;28;20330;-73
2023/12/08 15:48:24;;;;;;;;;;;8.30;99.90;;;;;;8434482;28;19928;-73
2023/12/08 15:52:26;;;;;;;;;;;8.40;99.90;;;;;;8454814;27;19924;-73
2023/12/08 15:56:28;;;;;;;;;;;8.30;99.90;;;;;;8431158;28;19931;-73
2023/12/08 16:00:30;;;;;;;;;;;8.40;99.90;;;;;;8428731;28;19928;-73
2023/12/08 16:04:32;;;;;;;;;;;8.30;99.90;;;;;;8426637;28;19932;-73
2023/12/08 16:08:33;;;;;;;;;;;8.40;99.90;;;;;;8445986;28;20303;-73
2023/12/08 16:12:35;;;;;;;;;;;8.40;99.90;;;;;;8435749;28;19961;-73
2023/12/08 16:16:37;;;;;;;;;;;8.40;99.90;;;;;;8423630;28;20260;-73
2023/12/08 16:20:40;;;;;;;;;;;8.40;99.90;;;;;;8418567;28;19930;-73
2023/12/08 16:24:43;;;;;;;;;;;8.40;99.90;;;;;;8440005;28;19928;-73
2023/12/08 16:28:45;;;;;;;;;;;8.50;99.90;;;;;;8446648;27;19930;-73
2023/12/08 16:32:47;;;;;;;;;;;8.40;99.90;;;;;;8427083;28;19927;-73
2023/12/08 16:36:49;;;;;;;;;;;8.50;99.90;;;;;;8430189;28;19932;-73
2023/12/08 16:40:51;;;;;;;;;;;8.50;99.90;;;;;;8398898;28;19928;-73
2023/12/08 16:44:53;;;;;;;;;;;8.50;99.90;;;;;;8420413;27;19924;-73
2023/12/08 16:48:54;;;;;;;;;;;8.50;99.90;;;;;;8389971;28;19932;-73
2023/12/08 16:52:56;;;;;;;;;;;8.50;99.90;;;;;;8391588;28;19929;-72
2023/12/08 16:56:58;;;;;;;;;;;8.50;99.90;;;;;;8392172;28;19936;-73
2023/12/08 17:00:59;;;;;;;;;;;8.50;99.90;;;;;;8398810;28;19931;-73
2023/12/08 17:05:01;;;;;;;;;;;8.50;99.90;;;;;;8400268;28;19936;-73
2023/12/08 17:09:04;;;;;;;;;;;8.50;99.90;;;;;;8397594;28;19925;-73
2023/12/08 17:13:05;;;;;;;;;;;8.50;99.90;;;;;;8429868;27;19982;-73
2023/12/08 17:17:07;;;;;;;;;;;8.50;99.90;;;;;;8392465;28;19978;-73
2023/12/08 17:21:09;;;;;;;;;;;8.50;99.90;;;;;;8423837;27;19928;-73
2023/12/08 17:25:10;;;;;;;;;;;8.50;99.90;;;;;;8397370;28;19924;-72
2023/12/08 17:29:12;;;;;;;;;;;8.50;99.90;;;;;;8392618;28;20276;-73
2023/12/08 17:33:14;;;;;;;;;;;8.50;99.90;;;;;;8405018;28;19959;-72
2023/12/08 17:37:16;;;;;;;;;;;8.50;99.90;;;;;;8404502;28;19968;-73
2023/12/08 17:41:18;;;;;;;;;;;8.60;99.90;;;;;;8404410;28;19964;-72
2023/12/08 17:45:20;;;;;;;;;;;8.60;99.90;;;;;;8397446;28;19928;-73
2023/12/08 17:49:22;;;;;;;;;;;8.60;99.90;;;;;;8396746;28;19932;-72
2023/12/08 17:53:23;;;;;;;;;;;8.60;99.90;;;;;;8399723;28;19982;-72
2023/12/08 17:57:25;;;;;;;;;;;8.60;99.90;;;;;;8392813;28;19991;-73
2023/12/08 18:01:27;;;;;;;;;;;8.50;99.90;;;;;;8388316;28;19970;-73
2023/12/08 18:05:29;;;;;;;;;;;8.50;99.90;;;;;;8423088;27;19932;-73
2023/12/08 18:09:30;;;;;;;;;;;8.50;99.90;;;;;;8401274;28;19951;-73
2023/12/08 18:13:32;;;;;;;;;;;8.50;99.90;;;;;;8408039;28;19963;-73
2023/12/08 18:17:34;;;;;;;;;;;8.50;99.90;;;;;;8407584;28;19932;-73
2023/12/08 18:21:35;;;;;;;;;;;8.50;99.90;;;;;;8397585;28;19992;-73
2023/12/08 18:25:37;;;;;;;;;;;8.50;99.90;;;;;;8405427;28;19924;-73
2023/12/08 18:29:39;;;;;;;;;;;8.50;99.90;;;;;;8436713;27;19985;-73
2023/12/08 18:33:41;;;;;;;;;;;8.50;99.90;;;;;;8390947;28;19974;-73
2023/12/08 18:37:43;;;;;;;;;;;8.50;99.90;;;;;;8394114;28;19929;-73
2023/12/08 18:41:45;;;;;;;;;;;8.40;99.90;;;;;;8395056;28;20342;-73
2023/12/08 18:45:46;;;;;;;;;;;8.40;99.90;;;;;;8391222;28;20396;-73
2023/12/08 18:49:48;;;;;;;;;;;8.40;99.90;;;;;;8393881;28;20390;-73
2023/12/08 18:53:52;;;;;;;;;;;8.30;99.90;;;;;;8393374;28;19928;-73
2023/12/08 18:57:55;;;;;;;;;;;8.30;99.90;;;;;;8391262;28;20437;-73
2023/12/08 19:01:57;;;;;;;;;;;8.30;99.90;;;;;;8396235;28;20437;-72
2023/12/08 19:05:58;;;;;;;;;;;8.20;99.90;;;;;;8397502;28;19932;-73
2023/12/08 19:10:00;;;;;;;;;;;8.20;99.90;;;;;;8389688;28;19924;-73
2023/12/08 19:14:02;;;;;;;;;;;8.20;99.90;;;;;;8391243;28;20292;-73
2023/12/08 19:18:04;;;;;;;;;;;8.10;99.90;;;;;;8391996;28;19933;-73
2023/12/08 19:22:06;;;;;;;;;;;8.10;99.90;;;;;;8394982;28;19936;-72
2023/12/08 19:26:08;;;;;;;;;;;8.10;99.90;;;;;;8393890;28;20307;-73
2023/12/08 19:30:09;;;;;;;;;;;8.10;99.90;;;;;;8390900;28;19986;-73
2023/12/08 19:34:11;;;;;;;;;;;8.00;99.90;;;;;;8389353;28;19924;-73
2023/12/08 19:38:14;;;;;;;;;;;8.00;99.90;;;;;;8391679;28;19947;-73
2023/12/08 19:42:18;;;;;;;;;;;7.90;99.90;;;;;;8395415;28;20287;-72
2023/12/08 19:46:20;;;;;;;;;;;7.90;99.90;;;;;;8389609;28;19964;-72
2023/12/08 19:50:22;;;;;;;;;;;7.80;99.90;;;;;;8393159;28;19924;-73
2023/12/08 19:54:23;;;;;;;;;;;7.80;99.90;;;;;;8388836;28;19932;-73
2023/12/08 19:58:25;;;;;;;;;;;7.80;99.90;;;;;;8391021;28;20292;-73
2023/12/08 20:02:27;;;;;;;;;;;7.80;99.90;;;;;;8396607;28;20002;-73
2023/12/08 20:11:32;;;;;;;;;;;7.80;99.90;;;;;;8391805;28;19915;-73
2023/12/08 20:15:34;;;;;;;;;;;7.70;99.90;;;;;;8392844;28;20338;-73
2023/12/08 20:19:36;;;;;;;;;;;7.70;99.90;;;;;;8390399;28;19967;-73
2023/12/08 20:23:38;;;;;;;;;;;7.70;99.90;;;;;;8393508;28;19928;-73
2023/12/08 20:27:39;;;;;;;;;;;7.70;99.90;;;;;;8392223;28;19928;-73
2023/12/08 20:31:42;;;;;;;;;;;7.70;99.90;;;;;;8388887;28;19924;-73
2023/12/08 20:35:44;;;;;;;;;;;7.70;99.90;;;;;;8393824;28;19956;-73
2023/12/08 20:39:45;;;;;;;;;;;7.70;99.90;;;;;;8393436;28;19925;-73
2023/12/08 20:43:47;;;;;;;;;;;7.80;99.90;;;;;;8394416;28;20411;-73
2023/12/08 20:47:49;;;;;;;;;;;7.80;99.90;;;;;;8393419;28;19936;-73
2023/12/08 20:51:50;;;;;;;;;;;7.80;99.90;;;;;;8391711;28;20438;-73
2023/12/08 20:55:52;;;;;;;;;;;7.80;99.90;;;;;;8422533;27;19932;-73
2023/12/08 20:59:54;;;;;;;;;;;7.80;99.90;;;;;;8392455;28;19932;-73
2023/12/08 21:03:55;;;;;;;;;;;7.80;99.90;;;;;;8397292;28;19930;-73
2023/12/08 21:07:57;;;;;;;;;;;7.80;99.90;;;;;;8390453;28;19924;-73
2023/12/08 21:11:59;;;;;;;;;;;7.80;99.90;;;;;;8395860;28;19924;-72
2023/12/08 21:16:00;;;;;;;;;;;7.80;99.90;;;;;;8390844;28;20019;-73
2023/12/08 21:20:02;;;;;;;;;;;7.80;99.90;;;;;;8425591;27;19924;-73
2023/12/08 21:24:04;;;;;;;;;;;7.80;99.90;;;;;;8390762;28;20313;-73
2023/12/08 21:28:06;;;;;;;;;;;7.90;99.90;;;;;;8388686;28;20865;-73
2023/12/08 21:32:08;;;;;;;;;;;7.90;99.90;;;;;;8396915;28;19925;-73
2023/12/08 21:36:09;;;;;;;;;;;7.90;99.90;;;;;;8388795;28;19935;-72
2023/12/08 21:40:11;;;;;;;;;;;7.90;99.90;;;;;;8393404;28;20319;-73
2023/12/08 21:44:13;;;;;;;;;;;7.90;99.90;;;;;;8401720;28;19951;-73
2023/12/08 21:48:15;;;;;;;;;;;7.90;99.90;;;;;;8426765;27;19924;-73
2023/12/08 21:52:16;;;;;;;;;;;7.90;99.90;;;;;;8398236;28;19931;-73
2023/12/08 21:56:19;;;;;;;;;;;7.90;99.90;;;;;;8398590;28;19924;-73
2023/12/08 22:15:40;;;;;;;;;;;7.80;99.90;;;;;;8431045;28;19923;-72
2023/12/08 22:19:42;;;;;;;;;;;7.80;99.90;;;;;;8434359;28;19924;-72
2023/12/08 22:23:44;;;;;;;;;;;7.80;99.90;;;;;;8445216;28;20002;-73
2023/12/08 22:27:45;;;;;;;;;;;7.80;99.90;;;;;;8430056;28;19924;-73
2023/12/08 22:31:47;;;;;;;;;;;7.80;99.90;;;;;;8440033;28;20263;-73
2023/12/08 22:35:49;;;;;;;;;;;7.80;99.90;;;;;;8437698;28;19935;-72
2023/12/08 22:39:52;;;;;;;;;;;7.80;99.90;;;;;;8444146;28;20279;-73
2023/12/08 22:43:54;;;;;;;;;;;7.80;99.90;;;;;;8446170;28;19969;-72
2023/12/08 22:47:55;;;;;;;;;;;7.80;99.90;;;;;;8422384;28;19928;-73
2023/12/08 22:51:57;;;;;;;;;;;7.80;99.90;;;;;;8435727;28;19988;-73
2023/12/08 22:56:00;;;;;;;;;;;7.80;99.90;;;;;;8426166;28;19932;-72
2023/12/08 23:15:13;;;;;;;;;;;7.90;99.90;;;;;;8430313;28;20665;-72
2023/12/08 23:19:14;;;;;;;;;;;7.90;99.90;;;;;;8438550;28;19924;-73
2023/12/08 23:23:16;;;;;;;;;;;7.80;99.90;;;;;;8425874;28;20780;-73
2023/12/08 23:27:19;;;;;;;;;;;7.80;99.90;;;;;;8425935;28;19928;-73
2023/12/08 23:31:21;;;;;;;;;;;7.80;99.90;;;;;;8431815;28;19924;-73
2023/12/08 23:35:25;;;;;;;;;;;7.80;99.90;;;;;;8436341;28;19971;-72
2023/12/08 23:39:27;;;;;;;;;;;7.80;99.90;;;;;;8435502;28;19978;-72
2023/12/08 23:43:29;;;;;;;;;;;7.80;99.90;;;;;;8437288;28;19931;-72
2023/12/08 23:47:31;;;;;;;;;;;7.80;99.90;;;;;;8435105;28;19928;-73
2023/12/08 23:51:33;;;;;;;;;;;7.80;99.90;;;;;;8441916;28;20294;-73
2023/12/08 23:55:34;;;;;;;;;;;7.80;99.90;;;;;;8446479;28;20337;-73
2023/12/08 23:59:36;;;;;;;;;;;7.80;99.90;;;;;;8446630;28;20375;-72
